createdAt,value
2022-12-29T00:00:13.264Z,8.60
2022-12-29T00:02:41.874Z,8.50
2022-12-29T00:05:10.625Z,8.60
2022-12-29T00:07:39.386Z,8.60
2022-12-29T00:10:08.378Z,8.60
2022-12-29T00:12:54.972Z,8.60
2022-12-29T00:15:39.025Z,8.60
2022-12-29T00:18:09.001Z,8.50
2022-12-29T00:20:56.777Z,8.40
2022-12-29T00:23:43.410Z,8.50
2022-12-29T00:26:35.242Z,8.80
2022-12-29T00:29:22.023Z,8.50
2022-12-29T00:32:09.007Z,8.50
2022-12-29T00:34:55.872Z,8.60
2022-12-29T00:37:44.199Z,8.40
2022-12-29T00:40:30.884Z,8.30
2022-12-29T00:43:17.815Z,8.30
2022-12-29T00:45:46.690Z,8.20
2022-12-29T00:48:15.050Z,8.10
2022-12-29T00:50:43.456Z,8.10
2022-12-29T00:53:11.813Z,8.20
2022-12-29T00:55:40.293Z,7.90
2022-12-29T00:58:08.785Z,7.70
2022-12-29T01:00:37.265Z,7.60
2022-12-29T01:03:05.874Z,7.50
2022-12-29T01:05:37.724Z,7.50
2022-12-29T01:08:06.448Z,7.50
2022-12-29T01:10:35.698Z,7.40
2022-12-29T01:13:04.102Z,7.50
2022-12-29T01:15:32.557Z,7.40
2022-12-29T01:18:00.953Z,7.50
2022-12-29T01:20:30.444Z,7.50
2022-12-29T01:22:58.803Z,7.50
2022-12-29T01:25:27.183Z,7.50
2022-12-29T01:27:55.579Z,7.50
2022-12-29T01:30:23.963Z,7.40
2022-12-29T01:32:52.354Z,7.50
2022-12-29T01:35:20.849Z,7.40
2022-12-29T01:37:49.274Z,7.50
2022-12-29T01:40:17.937Z,7.50
2022-12-29T01:42:46.437Z,7.60
2022-12-29T01:45:16.632Z,7.70
2022-12-29T01:47:53.810Z,7.70
2022-12-29T01:50:24.910Z,7.70
2022-12-29T01:53:07.290Z,7.70
2022-12-29T01:55:59.409Z,7.80
2022-12-29T01:58:32.958Z,7.90
2022-12-29T02:01:01.681Z,7.70
2022-12-29T02:03:34.108Z,7.90
2022-12-29T02:06:38.852Z,7.70
2022-12-29T02:09:07.313Z,7.90
2022-12-29T02:11:38.531Z,7.70
2022-12-29T02:14:14.267Z,7.90
2022-12-29T02:17:15.296Z,8.00
2022-12-29T02:20:19.917Z,8.10
2022-12-29T02:23:14.389Z,8.10
2022-12-29T02:25:54.746Z,8.20
2022-12-29T02:28:26.164Z,8.10
2022-12-29T02:31:30.254Z,8.30
2022-12-29T02:34:18.730Z,8.10
2022-12-29T02:37:35.033Z,8.50
2022-12-29T02:40:16.794Z,8.30
2022-12-29T02:43:11.541Z,8.20
2022-12-29T02:46:05.192Z,8.10
2022-12-29T02:48:49.860Z,8.20
2022-12-29T02:51:27.506Z,8.10
2022-12-29T02:54:16.821Z,8.20
2022-12-29T02:56:45.478Z,8.00
2022-12-29T02:59:14.713Z,8.00
2022-12-29T03:02:19.984Z,8.10
2022-12-29T03:05:15.441Z,8.00
2022-12-29T03:08:02.337Z,8.10
2022-12-29T03:11:33.689Z,8.10
2022-12-29T03:14:46.560Z,8.00
2022-12-29T03:17:28.142Z,8.10
2022-12-29T03:20:05.969Z,8.10
2022-12-29T03:22:38.552Z,8.00
2022-12-29T03:25:17.376Z,8.10
2022-12-29T03:27:57.435Z,8.00
2022-12-29T03:30:28.284Z,8.30
2022-12-29T03:33:03.991Z,8.00
2022-12-29T03:35:36.329Z,8.10
2022-12-29T03:38:13.381Z,8.10
2022-12-29T03:40:52.087Z,8.00
2022-12-29T03:43:20.915Z,8.10
2022-12-29T03:45:49.487Z,8.20
2022-12-29T03:48:17.924Z,8.20
2022-12-29T03:50:46.680Z,8.20
2022-12-29T03:53:15.087Z,8.20
2022-12-29T03:55:43.583Z,8.20
2022-12-29T03:58:11.954Z,8.10
2022-12-29T04:00:40.344Z,8.20
2022-12-29T04:03:08.882Z,8.10
2022-12-29T04:05:37.399Z,8.20
2022-12-29T04:08:05.989Z,8.20
2022-12-29T04:10:34.431Z,8.20
2022-12-29T04:13:02.807Z,8.10
2022-12-29T04:15:31.244Z,7.90
2022-12-29T04:18:00.013Z,8.10
2022-12-29T04:20:46.808Z,7.90
2022-12-29T04:23:15.298Z,8.00
2022-12-29T04:25:46.891Z,8.00
2022-12-29T04:28:16.429Z,7.90
2022-12-29T04:30:48.096Z,7.80
2022-12-29T04:33:16.653Z,7.90
2022-12-29T04:35:48.018Z,7.90
2022-12-29T04:38:17.203Z,7.90
2022-12-29T04:40:47.138Z,8.10
2022-12-29T04:43:16.045Z,8.20
2022-12-29T04:45:49.841Z,8.50
2022-12-29T04:48:18.418Z,8.50
2022-12-29T04:50:49.163Z,8.50
2022-12-29T04:53:18.778Z,8.40
2022-12-29T04:55:50.432Z,7.90
2022-12-29T04:58:22.614Z,7.90
2022-12-29T05:00:53.234Z,8.00
2022-12-29T05:03:21.829Z,8.20
2022-12-29T05:05:50.271Z,7.90
2022-12-29T05:08:21.922Z,7.80
2022-12-29T05:10:54.941Z,7.60
2022-12-29T05:13:23.374Z,7.40
2022-12-29T05:15:55.914Z,7.30
2022-12-29T05:18:24.415Z,7.20
2022-12-29T05:20:52.797Z,7.10
2022-12-29T05:23:21.226Z,7.00
2022-12-29T05:25:49.693Z,7.00
2022-12-29T05:28:18.642Z,6.90
2022-12-29T05:30:50.021Z,6.90
2022-12-29T05:33:19.485Z,7.00
2022-12-29T05:35:47.956Z,6.90
2022-12-29T05:38:16.656Z,7.00
2022-12-29T05:40:47.177Z,7.00
2022-12-29T05:43:15.655Z,7.00
2022-12-29T05:45:44.065Z,7.00
2022-12-29T05:48:12.442Z,6.90
2022-12-29T05:50:40.793Z,6.90
2022-12-29T05:53:09.271Z,6.90
2022-12-29T05:55:39.187Z,7.00
2022-12-29T05:58:09.372Z,7.00
2022-12-29T06:00:37.795Z,7.00
2022-12-29T06:03:06.996Z,6.90
2022-12-29T06:05:35.599Z,7.00
2022-12-29T06:08:04.018Z,6.90
2022-12-29T06:10:32.516Z,6.90
2022-12-29T06:13:01.235Z,6.90
2022-12-29T06:15:29.720Z,7.00
2022-12-29T06:17:58.102Z,6.90
2022-12-29T06:20:26.852Z,6.90
2022-12-29T06:22:55.257Z,6.80
2022-12-29T06:25:23.656Z,7.00
2022-12-29T06:27:52.151Z,6.60
2022-12-29T06:30:20.523Z,6.70
2022-12-29T06:32:48.900Z,6.70
2022-12-29T06:35:17.580Z,6.60
2022-12-29T06:37:46.161Z,6.60
2022-12-29T06:40:14.573Z,6.60
2022-12-29T06:42:43.223Z,6.60
2022-12-29T06:45:12.208Z,6.50
2022-12-29T06:47:40.743Z,6.50
2022-12-29T06:50:09.529Z,6.50
2022-12-29T06:52:37.905Z,6.50
2022-12-29T06:55:06.720Z,6.60
2022-12-29T06:57:36.006Z,6.60
2022-12-29T07:00:06.684Z,6.60
2022-12-29T07:02:35.679Z,6.60
2022-12-29T07:05:04.174Z,6.60
2022-12-29T07:07:32.644Z,6.70
2022-12-29T07:10:01.054Z,6.60
2022-12-29T07:12:29.443Z,6.60
2022-12-29T07:14:57.851Z,6.60
2022-12-29T07:17:26.305Z,6.50
2022-12-29T07:19:54.694Z,6.50
2022-12-29T07:22:23.297Z,6.50
2022-12-29T07:24:51.684Z,6.50
2022-12-29T07:27:20.106Z,6.50
2022-12-29T07:29:48.643Z,6.50
2022-12-29T07:32:17.127Z,6.50
2022-12-29T07:34:47.077Z,6.50
2022-12-29T07:37:18.872Z,6.60
2022-12-29T07:39:47.393Z,6.50
2022-12-29T07:42:15.826Z,6.60
2022-12-29T07:44:44.416Z,6.50
2022-12-29T07:47:12.814Z,6.50
2022-12-29T07:49:41.197Z,6.60
2022-12-29T07:52:09.829Z,6.50
2022-12-29T07:54:38.217Z,6.50
2022-12-29T07:57:07.678Z,6.60
2022-12-29T07:59:36.206Z,6.60
2022-12-29T08:02:04.719Z,6.60
2022-12-29T08:04:33.279Z,6.50
2022-12-29T08:07:01.886Z,6.50
2022-12-29T08:09:30.298Z,6.60
2022-12-29T08:11:58.695Z,6.50
2022-12-29T08:14:27.140Z,6.60
2022-12-29T08:16:55.537Z,6.60
2022-12-29T08:19:23.966Z,6.60
2022-12-29T08:21:53.074Z,6.60
2022-12-29T08:24:21.547Z,6.50
2022-12-29T08:26:49.973Z,6.50
2022-12-29T08:29:18.719Z,6.50
2022-12-29T08:31:47.263Z,6.50
2022-12-29T08:34:16.037Z,6.60
2022-12-29T08:36:44.483Z,6.70
2022-12-29T08:39:12.868Z,6.60
2022-12-29T08:41:41.417Z,6.50
2022-12-29T08:44:10.173Z,6.60
2022-12-29T08:46:38.638Z,6.50
2022-12-29T08:49:07.239Z,6.50
2022-12-29T08:51:35.748Z,6.60
2022-12-29T08:54:04.161Z,6.60
2022-12-29T08:56:32.541Z,6.60
2022-12-29T08:59:00.976Z,6.60
2022-12-29T09:01:29.513Z,6.50
2022-12-29T09:04:15.672Z,6.60
2022-12-29T09:06:46.480Z,6.60
2022-12-29T09:09:15.198Z,6.60
2022-12-29T09:11:44.059Z,6.60
2022-12-29T09:14:12.573Z,6.50
2022-12-29T09:17:00.957Z,6.60
2022-12-29T09:19:29.369Z,6.60
2022-12-29T09:21:57.980Z,6.60
2022-12-29T09:24:26.347Z,6.60
2022-12-29T09:26:54.859Z,6.50
2022-12-29T09:29:23.656Z,6.50
2022-12-29T09:31:52.475Z,6.50
2022-12-29T09:34:20.953Z,6.50
2022-12-29T09:36:49.340Z,6.60
2022-12-29T09:39:17.733Z,6.60
2022-12-29T09:41:58.402Z,6.50
2022-12-29T09:44:43.527Z,6.60
2022-12-29T09:47:15.692Z,6.60
2022-12-29T09:49:51.324Z,6.60
2022-12-29T09:52:45.404Z,6.60
2022-12-29T09:55:28.048Z,6.60
2022-12-29T09:58:04.407Z,6.60
2022-12-29T10:00:55.123Z,6.60
2022-12-29T10:03:28.352Z,6.70
2022-12-29T10:06:26.102Z,6.70
2022-12-29T10:09:06.363Z,6.80
2022-12-29T10:12:11.894Z,6.60
2022-12-29T10:14:55.397Z,6.70
2022-12-29T10:17:36.080Z,6.60
2022-12-29T10:20:13.467Z,6.70
2022-12-29T10:22:49.903Z,6.70
2022-12-29T10:25:23.678Z,6.70
2022-12-29T10:27:58.906Z,6.70
2022-12-29T10:30:27.744Z,6.90
2022-12-29T10:33:03.372Z,6.90
2022-12-29T10:35:42.369Z,6.80
2022-12-29T10:38:43.098Z,6.80
2022-12-29T10:41:23.789Z,6.80
2022-12-29T10:43:56.233Z,6.80
2022-12-29T10:46:37.072Z,6.90
2022-12-29T10:49:07.411Z,6.90
2022-12-29T10:51:44.405Z,6.90
2022-12-29T10:54:25.600Z,6.80
2022-12-29T10:57:08.055Z,6.80
2022-12-29T10:59:38.902Z,6.80
2022-12-29T11:02:13.474Z,7.00
2022-12-29T11:05:17.788Z,6.90
2022-12-29T11:07:48.811Z,7.10
2022-12-29T11:10:38.899Z,6.80
2022-12-29T11:13:16.576Z,6.80
2022-12-29T11:15:50.738Z,6.80
2022-12-29T11:18:25.310Z,6.90
2022-12-29T11:21:02.534Z,6.80
2022-12-29T11:23:42.127Z,6.80
2022-12-29T11:26:21.509Z,6.80
2022-12-29T11:29:10.023Z,6.60
2022-12-29T11:32:00.720Z,6.60
2022-12-29T11:34:34.971Z,6.60
2022-12-29T11:37:07.979Z,6.40
2022-12-29T11:39:53.934Z,6.30
2022-12-29T11:42:32.855Z,6.30
2022-12-29T11:45:26.297Z,6.30
2022-12-29T11:47:58.563Z,6.30
2022-12-29T11:50:31.703Z,6.40
2022-12-29T11:53:26.552Z,6.40
2022-12-29T11:56:11.516Z,6.60
2022-12-29T11:58:40.771Z,6.60
2022-12-29T12:01:25.934Z,6.70
2022-12-29T12:04:03.912Z,6.70
2022-12-29T12:06:37.534Z,6.40
2022-12-29T12:09:12.472Z,6.30
2022-12-29T12:11:45.199Z,6.50
2022-12-29T12:14:29.423Z,6.60
2022-12-29T12:17:13.341Z,6.60
2022-12-29T12:20:20.069Z,6.40
2022-12-29T12:22:56.937Z,6.70
2022-12-29T12:25:47.567Z,6.40
2022-12-29T12:28:21.254Z,6.40
2022-12-29T12:30:54.348Z,6.30
2022-12-29T12:33:38.939Z,6.30
2022-12-29T12:36:49.559Z,6.30
2022-12-29T12:39:57.754Z,6.30
2022-12-29T12:42:31.697Z,6.50
2022-12-29T12:45:00.075Z,6.30
2022-12-29T12:47:52.506Z,6.30
2022-12-29T12:50:38.265Z,6.30
2022-12-29T12:53:35.620Z,6.40
2022-12-29T12:56:43.892Z,6.10
2022-12-29T12:59:42.897Z,6.40
2022-12-29T13:02:42.847Z,6.10
2022-12-29T13:05:27.277Z,6.30
2022-12-29T13:08:17.609Z,6.00
2022-12-29T13:11:21.401Z,6.10
2022-12-29T13:13:52.905Z,6.00
2022-12-29T13:16:43.756Z,5.80
2022-12-29T13:19:14.953Z,6.00
2022-12-29T13:22:01.796Z,5.80
2022-12-29T13:24:55.471Z,6.00
2022-12-29T13:27:23.891Z,5.60
2022-12-29T13:30:01.219Z,5.50
2022-12-29T13:32:52.002Z,5.60
2022-12-29T13:35:29.349Z,5.50
2022-12-29T13:38:07.871Z,5.60
2022-12-29T13:40:42.002Z,5.40
2022-12-29T13:43:11.377Z,5.30
2022-12-29T13:45:41.462Z,5.40
2022-12-29T13:48:23.729Z,5.20
2022-12-29T13:51:00.463Z,5.30
2022-12-29T13:53:42.947Z,5.40
2022-12-29T13:56:28.746Z,5.40
2022-12-29T13:59:23.144Z,5.10
2022-12-29T14:02:00.483Z,5.20
2022-12-29T14:04:34.528Z,5.20
2022-12-29T14:07:14.693Z,5.30
2022-12-29T14:09:46.276Z,5.20
2022-12-29T14:12:42.572Z,5.10
2022-12-29T14:15:14.437Z,5.20
2022-12-29T14:17:43.344Z,5.30
2022-12-29T14:20:25.399Z,5.10
2022-12-29T14:23:11.992Z,5.40
2022-12-29T14:26:08.189Z,5.30
2022-12-29T14:28:40.833Z,5.40
2022-12-29T14:31:21.388Z,5.30
2022-12-29T14:34:08.361Z,5.10
2022-12-29T14:36:42.403Z,5.10
2022-12-29T14:39:49.703Z,5.30
2022-12-29T14:42:24.419Z,5.10
2022-12-29T14:45:05.141Z,5.20
2022-12-29T14:47:35.039Z,5.10
2022-12-29T14:50:19.808Z,5.30
2022-12-29T14:52:58.448Z,5.10
2022-12-29T14:55:41.661Z,5.30
2022-12-29T14:58:28.218Z,5.40
2022-12-29T15:00:57.016Z,5.40
2022-12-29T15:03:27.136Z,5.10
2022-12-29T15:06:03.568Z,5.10
2022-12-29T15:08:56.426Z,5.10
2022-12-29T15:11:31.566Z,5.40
2022-12-29T15:14:00.133Z,5.10
2022-12-29T15:16:38.550Z,5.10
2022-12-29T15:19:22.641Z,5.40
2022-12-29T15:21:51.279Z,5.30
2022-12-29T15:24:19.929Z,5.20
2022-12-29T15:26:51.845Z,5.10
2022-12-29T15:29:38.826Z,5.40
2022-12-29T15:32:23.754Z,5.40
2022-12-29T15:34:57.778Z,5.30
2022-12-29T15:37:27.424Z,5.20
2022-12-29T15:39:57.932Z,5.20
2022-12-29T15:42:38.597Z,5.20
2022-12-29T15:45:15.386Z,5.30
2022-12-29T15:47:46.305Z,5.20
2022-12-29T15:50:36.377Z,5.20
2022-12-29T15:53:11.922Z,5.30
2022-12-29T15:55:43.653Z,5.30
2022-12-29T15:58:27.465Z,5.30
2022-12-29T16:01:02.035Z,5.30
2022-12-29T16:03:35.692Z,5.40
2022-12-29T16:06:13.050Z,5.20
2022-12-29T16:08:42.550Z,5.40
2022-12-29T16:11:26.568Z,5.40
2022-12-29T16:13:56.314Z,5.40
2022-12-29T16:16:33.870Z,5.30
2022-12-29T16:19:13.667Z,5.40
2022-12-29T16:21:43.785Z,5.50
2022-12-29T16:24:18.264Z,5.60
2022-12-29T16:27:15.469Z,5.60
2022-12-29T16:29:43.984Z,5.60
2022-12-29T16:32:32.138Z,5.60
2022-12-29T16:35:22.735Z,5.60
2022-12-29T16:38:10.299Z,5.60
2022-12-29T16:40:57.529Z,5.40
2022-12-29T16:43:43.462Z,5.70
2022-12-29T16:46:30.686Z,5.60
2022-12-29T16:48:59.721Z,5.60
2022-12-29T16:51:37.343Z,5.50
2022-12-29T16:54:06.643Z,5.40
2022-12-29T16:56:38.345Z,5.50
2022-12-29T16:59:25.867Z,5.40
2022-12-29T17:01:54.524Z,5.60
2022-12-29T17:04:23.022Z,5.60
2022-12-29T17:06:51.421Z,5.40
2022-12-29T17:09:23.858Z,5.60
2022-12-29T17:12:08.804Z,5.60
2022-12-29T17:14:53.897Z,5.70
2022-12-29T17:17:31.408Z,5.40
2022-12-29T17:20:16.231Z,5.40
2022-12-29T17:22:44.737Z,5.40
2022-12-29T17:25:19.401Z,5.40
2022-12-29T17:27:53.287Z,5.60
2022-12-29T17:30:33.204Z,5.60
2022-12-29T17:33:11.695Z,5.40
2022-12-29T17:35:40.475Z,5.60
2022-12-29T17:38:36.233Z,5.30
2022-12-29T17:41:05.030Z,5.60
2022-12-29T17:43:37.099Z,5.30
2022-12-29T17:46:08.886Z,5.40
2022-12-29T17:48:37.860Z,5.60
2022-12-29T17:51:06.399Z,5.60
2022-12-29T17:53:34.901Z,5.50
2022-12-29T17:56:03.350Z,5.20
2022-12-29T17:58:33.255Z,5.30
2022-12-29T18:01:03.735Z,5.30
2022-12-29T18:03:38.499Z,5.10
2022-12-29T18:06:09.201Z,5.10
2022-12-29T18:08:39.452Z,5.20
2022-12-29T18:11:25.772Z,5.60
2022-12-29T18:13:55.209Z,5.20
2022-12-29T18:16:24.801Z,5.30
2022-12-29T18:18:53.472Z,5.30
2022-12-29T18:21:24.337Z,5.00
2022-12-29T18:23:53.614Z,5.40
2022-12-29T18:26:28.886Z,5.40
2022-12-29T18:28:59.120Z,5.20
2022-12-29T18:31:33.731Z,5.60
2022-12-29T18:34:08.044Z,5.20
2022-12-29T18:36:36.440Z,5.60
2022-12-29T18:39:04.884Z,5.60
2022-12-29T18:41:33.299Z,5.30
2022-12-29T18:44:01.811Z,5.40
2022-12-29T18:46:30.937Z,5.10
2022-12-29T18:48:59.357Z,5.30
2022-12-29T18:51:27.791Z,5.20
2022-12-29T18:53:56.479Z,5.40
2022-12-29T18:56:25.424Z,5.60
2022-12-29T18:58:54.346Z,5.30
2022-12-29T19:01:26.413Z,5.60
2022-12-29T19:03:55.417Z,5.10
2022-12-29T19:06:24.068Z,5.30
2022-12-29T19:08:52.540Z,5.70
2022-12-29T19:11:20.902Z,5.10
2022-12-29T19:13:49.305Z,5.70
2022-12-29T19:16:21.312Z,5.30
2022-12-29T19:19:07.708Z,5.60
2022-12-29T19:21:38.148Z,5.40
2022-12-29T19:24:06.941Z,5.40
2022-12-29T19:26:38.200Z,5.40
2022-12-29T19:29:09.005Z,5.50
2022-12-29T19:31:40.041Z,5.50
2022-12-29T19:34:08.670Z,5.70
2022-12-29T19:36:37.076Z,5.70
2022-12-29T19:39:05.625Z,5.70
2022-12-29T19:41:34.112Z,5.40
2022-12-29T19:44:02.552Z,5.90
2022-12-29T19:46:31.120Z,5.90
2022-12-29T19:49:00.342Z,5.80
2022-12-29T19:51:28.802Z,6.00
2022-12-29T19:53:59.348Z,6.00
2022-12-29T19:56:27.778Z,6.00
2022-12-29T19:58:58.335Z,6.00
2022-12-29T20:01:27.401Z,5.70
2022-12-29T20:03:55.899Z,5.80
2022-12-29T20:06:24.411Z,5.90
2022-12-29T20:08:52.845Z,5.90
2022-12-29T20:11:21.409Z,5.90
2022-12-29T20:13:49.861Z,6.20
2022-12-29T20:16:20.782Z,6.00
2022-12-29T20:18:50.028Z,5.90
2022-12-29T20:21:24.237Z,6.00
2022-12-29T20:23:54.007Z,6.30
2022-12-29T20:26:28.760Z,6.10
2022-12-29T20:29:00.952Z,6.00
2022-12-29T20:31:32.908Z,6.20
2022-12-29T20:34:01.809Z,6.10
2022-12-29T20:36:33.549Z,5.90
2022-12-29T20:39:05.597Z,5.90
2022-12-29T20:41:34.210Z,6.00
2022-12-29T20:44:02.723Z,5.90
2022-12-29T20:46:36.624Z,6.20
2022-12-29T20:49:08.797Z,6.10
2022-12-29T20:52:04.513Z,6.00
2022-12-29T20:54:25.868Z,5.90
2022-12-29T20:56:54.352Z,6.10
2022-12-29T20:59:27.671Z,6.00
2022-12-29T21:01:57.183Z,5.90
2022-12-29T21:04:26.037Z,5.90
2022-12-29T21:06:54.719Z,6.20
2022-12-29T21:09:23.751Z,5.90
2022-12-29T21:11:52.162Z,6.00
2022-12-29T21:14:20.824Z,6.30
2022-12-29T21:16:49.589Z,6.00
2022-12-29T21:19:18.020Z,6.00
2022-12-29T21:21:46.381Z,5.80
2022-12-29T21:24:14.792Z,6.10
2022-12-29T21:26:43.730Z,6.00
2022-12-29T21:29:12.110Z,5.80
2022-12-29T21:31:40.633Z,5.70
2022-12-29T21:34:10.440Z,5.80
2022-12-29T21:36:38.919Z,5.90
2022-12-29T21:39:07.642Z,5.70
2022-12-29T21:41:36.207Z,6.00
2022-12-29T21:44:22.865Z,5.90
2022-12-29T21:46:51.239Z,5.90
2022-12-29T21:49:19.673Z,5.70
2022-12-29T21:51:58.236Z,6.00
2022-12-29T21:54:47.224Z,6.00
2022-12-29T21:57:38.401Z,5.50
2022-12-29T22:00:27.161Z,6.00
2022-12-29T22:03:20.430Z,6.00
2022-12-29T22:06:11.146Z,5.80
2022-12-29T22:08:57.984Z,6.00
2022-12-29T22:11:45.018Z,5.90
2022-12-29T22:14:13.633Z,5.90
2022-12-29T22:16:42.076Z,6.00
2022-12-29T22:19:11.797Z,5.90
2022-12-29T22:21:40.296Z,5.90
2022-12-29T22:24:09.618Z,6.30
2022-12-29T22:26:38.023Z,6.10
2022-12-29T22:29:06.538Z,5.80
2022-12-29T22:31:35.058Z,5.90
2022-12-29T22:34:05.457Z,5.90
2022-12-29T22:36:34.583Z,6.00
2022-12-29T22:39:02.996Z,5.90
2022-12-29T22:41:31.457Z,5.90
2022-12-29T22:43:59.972Z,6.30
2022-12-29T22:46:28.376Z,6.30
2022-12-29T22:48:58.555Z,6.30
2022-12-29T22:51:27.204Z,6.10
2022-12-29T22:53:55.578Z,6.10
2022-12-29T22:56:23.965Z,6.20
2022-12-29T22:58:52.407Z,6.10
2022-12-29T23:01:24.411Z,6.20
2022-12-29T23:03:53.250Z,6.20
2022-12-29T23:06:21.761Z,6.10
2022-12-29T23:08:50.149Z,6.40
2022-12-29T23:11:18.677Z,6.30
2022-12-29T23:13:47.680Z,6.30
2022-12-29T23:16:17.141Z,6.60
2022-12-29T23:18:47.935Z,6.40
2022-12-29T23:21:18.203Z,6.50
2022-12-29T23:24:04.691Z,6.40
2022-12-29T23:26:39.131Z,6.60
2022-12-29T23:29:10.811Z,6.50
2022-12-29T23:31:39.986Z,6.60
2022-12-29T23:34:09.536Z,6.60
2022-12-29T23:36:38.468Z,6.50
2022-12-29T23:39:09.346Z,6.50
2022-12-29T23:41:38.198Z,6.60
2022-12-29T23:44:06.676Z,6.50
2022-12-29T23:46:36.301Z,6.60
2022-12-29T23:49:04.743Z,6.50
2022-12-29T23:51:33.154Z,6.70
2022-12-29T23:54:01.587Z,6.70
2022-12-29T23:56:30.037Z,6.60
2022-12-29T23:58:58.451Z,6.50
